Terminal Aerodrome Forecast
Issued by NWS

Home | Current Version | Previous Version | Text Only | Print | Product List | Glossary On
Versions: 1 2 3 4 5 6 7 8 9 10 11 12 13 14 15 16
969
FTPA31 PHFO 081136
TAFHLI
TAF
PHLI 081136Z 0812/0912 30006KT P6SM FEW020 SCT050
     FM082000 04010G17KT P6SM FEW025 SCT050
     FM090500 30006KT P6SM FEW025 SCT050=

USA.gov is the U.S. government's official web portal to all federal, state and local government web resources and services.